sensor_id;sensor_type;location;lat;lon;timestamp;pressure;altitude;pressure_sealevel;temperature;humidity
54248;BME280;40161;39.768;2.722;2023-07-28T00:02:08;101021.38;;;27.78;68.77
54248;BME280;40161;39.768;2.722;2023-07-28T00:04:34;101027.81;;;27.79;69.01
54248;BME280;40161;39.768;2.722;2023-07-28T00:07:01;101033.75;;;27.72;70.08
54248;BME280;40161;39.768;2.722;2023-07-28T00:09:26;101017.97;;;27.65;70.31
54248;BME280;40161;39.768;2.722;2023-07-28T00:11:52;101022.66;;;27.68;70.60
54248;BME280;40161;39.768;2.722;2023-07-28T00:14:17;101012.84;;;27.63;70.65
54248;BME280;40161;39.768;2.722;2023-07-28T00:16:43;101013.53;;;27.73;70.05
54248;BME280;40161;39.768;2.722;2023-07-28T00:19:09;101005.00;;;27.58;70.58
54248;BME280;40161;39.768;2.722;2023-07-28T00:21:34;100990.66;;;27.80;69.85
54248;BME280;40161;39.768;2.722;2023-07-28T00:24:00;100999.56;;;27.88;70.42
54248;BME280;40161;39.768;2.722;2023-07-28T00:26:25;100995.09;;;27.96;69.79
54248;BME280;40161;39.768;2.722;2023-07-28T00:28:51;100994.47;;;28.01;69.70
54248;BME280;40161;39.768;2.722;2023-07-28T00:31:16;100960.44;;;27.81;69.73
54248;BME280;40161;39.768;2.722;2023-07-28T00:33:42;100985.84;;;27.72;70.92
54248;BME280;40161;39.768;2.722;2023-07-28T00:36:07;100982.81;;;27.84;70.54
54248;BME280;40161;39.768;2.722;2023-07-28T00:38:33;100927.06;;;27.55;70.21
54248;BME280;40161;39.768;2.722;2023-07-28T00:40:58;100965.09;;;27.84;69.97
54248;BME280;40161;39.768;2.722;2023-07-28T00:43:24;100961.59;;;27.65;70.80
54248;BME280;40161;39.768;2.722;2023-07-28T00:45:50;100956.50;;;27.54;71.42
54248;BME280;40161;39.768;2.722;2023-07-28T00:48:16;100936.38;;;27.13;72.27
54248;BME280;40161;39.768;2.722;2023-07-28T00:50:44;100962.25;;;27.36;72.36
54248;BME280;40161;39.768;2.722;2023-07-28T00:53:11;100965.78;;;27.03;73.93
54248;BME280;40161;39.768;2.722;2023-07-28T00:55:38;100972.53;;;26.96;73.98
54248;BME280;40161;39.768;2.722;2023-07-28T00:58:04;100960.38;;;26.81;75.64
54248;BME280;40161;39.768;2.722;2023-07-28T01:00:29;100967.81;;;27.12;73.98
54248;BME280;40161;39.768;2.722;2023-07-28T01:02:56;100946.94;;;27.28;72.83
54248;BME280;40161;39.768;2.722;2023-07-28T01:05:29;100962.09;;;27.30;72.90
54248;BME280;40161;39.768;2.722;2023-07-28T01:08:06;100953.00;;;27.35;72.34
54248;BME280;40161;39.768;2.722;2023-07-28T01:10:34;100960.84;;;27.31;73.40
54248;BME280;40161;39.768;2.722;2023-07-28T01:13:00;100956.41;;;27.15;73.55
54248;BME280;40161;39.768;2.722;2023-07-28T01:15:26;100953.25;;;27.13;73.29
54248;BME280;40161;39.768;2.722;2023-07-28T01:17:52;100932.13;;;27.09;73.28
54248;BME280;40161;39.768;2.722;2023-07-28T01:20:17;100947.47;;;27.17;73.34
54248;BME280;40161;39.768;2.722;2023-07-28T01:22:53;100939.31;;;27.10;73.68
54248;BME280;40161;39.768;2.722;2023-07-28T01:28:11;100939.81;;;27.08;73.53
54248;BME280;40161;39.768;2.722;2023-07-28T01:30:38;100926.66;;;27.14;73.32
54248;BME280;40161;39.768;2.722;2023-07-28T01:33:06;100938.84;;;27.20;73.23
54248;BME280;40161;39.768;2.722;2023-07-28T01:35:33;100920.13;;;26.99;73.29
54248;BME280;40161;39.768;2.722;2023-07-28T01:37:59;100943.41;;;27.09;71.97
54248;BME280;40161;39.768;2.722;2023-07-28T01:40:25;100928.78;;;26.77;73.00
54248;BME280;40161;39.768;2.722;2023-07-28T01:42:50;100926.28;;;26.88;74.22
54248;BME280;40161;39.768;2.722;2023-07-28T01:45:16;100938.28;;;26.98;73.61
54248;BME280;40161;39.768;2.722;2023-07-28T01:47:41;100929.53;;;26.96;73.36
54248;BME280;40161;39.768;2.722;2023-07-28T01:50:07;100948.09;;;27.12;72.80
54248;BME280;40161;39.768;2.722;2023-07-28T01:52:32;100929.50;;;27.05;73.44
54248;BME280;40161;39.768;2.722;2023-07-28T01:54:58;100913.44;;;26.87;73.24
54248;BME280;40161;39.768;2.722;2023-07-28T01:57:23;100940.28;;;26.97;73.06
54248;BME280;40161;39.768;2.722;2023-07-28T01:59:55;100931.47;;;26.81;73.50
54248;BME280;40161;39.768;2.722;2023-07-28T02:02:20;100936.63;;;26.73;73.61
54248;BME280;40161;39.768;2.722;2023-07-28T02:04:46;100942.56;;;26.75;74.17
54248;BME280;40161;39.768;2.722;2023-07-28T02:07:11;100951.31;;;26.77;74.55
54248;BME280;40161;39.768;2.722;2023-07-28T02:09:37;100919.31;;;26.56;74.18
54248;BME280;40161;39.768;2.722;2023-07-28T02:12:03;100948.03;;;26.79;73.85
54248;BME280;40161;39.768;2.722;2023-07-28T02:14:28;100956.94;;;26.77;73.91
54248;BME280;40161;39.768;2.722;2023-07-28T02:16:54;100949.75;;;26.76;73.57
54248;BME280;40161;39.768;2.722;2023-07-28T02:19:19;100961.28;;;26.96;73.53
54248;BME280;40161;39.768;2.722;2023-07-28T02:21:45;100948.47;;;26.95;72.99
54248;BME280;40161;39.768;2.722;2023-07-28T02:24:10;100940.50;;;26.85;73.41
54248;BME280;40161;39.768;2.722;2023-07-28T02:26:36;100934.13;;;26.75;73.25
54248;BME280;40161;39.768;2.722;2023-07-28T02:29:01;100942.88;;;26.77;73.63
54248;BME280;40161;39.768;2.722;2023-07-28T02:31:27;100942.56;;;26.75;74.10
54248;BME280;40161;39.768;2.722;2023-07-28T02:33:52;100919.63;;;26.58;73.52
54248;BME280;40161;39.768;2.722;2023-07-28T02:36:18;100953.66;;;26.79;73.74
54248;BME280;40161;39.768;2.722;2023-07-28T02:38:43;100940.09;;;26.68;73.98
54248;BME280;40161;39.768;2.722;2023-07-28T02:41:09;100926.19;;;26.55;74.27
54248;BME280;40161;39.768;2.722;2023-07-28T02:43:34;100935.75;;;26.58;74.21
54248;BME280;40161;39.768;2.722;2023-07-28T02:46:00;100924.16;;;26.56;74.31
54248;BME280;40161;39.768;2.722;2023-07-28T02:48:26;100933.69;;;26.58;74.50
54248;BME280;40161;39.768;2.722;2023-07-28T02:50:51;100915.44;;;26.54;73.84
54248;BME280;40161;39.768;2.722;2023-07-28T02:53:17;100919.78;;;26.55;74.18
54248;BME280;40161;39.768;2.722;2023-07-28T02:55:43;100931.38;;;26.57;74.57
54248;BME280;40161;39.768;2.722;2023-07-28T02:58:10;100924.31;;;26.52;72.96
54248;BME280;40161;39.768;2.722;2023-07-28T03:00:39;100922.31;;;25.88;76.33
54248;BME280;40161;39.768;2.722;2023-07-28T03:03:06;100925.13;;;26.16;76.44
54248;BME280;40161;39.768;2.722;2023-07-28T03:05:32;100928.53;;;26.38;75.33
54248;BME280;40161;39.768;2.722;2023-07-28T03:07:58;100926.97;;;26.46;74.68
54248;BME280;40161;39.768;2.722;2023-07-28T03:10:25;100917.75;;;26.46;74.35
54248;BME280;40161;39.768;2.722;2023-07-28T03:12:50;100913.53;;;26.41;73.89
54248;BME280;40161;39.768;2.722;2023-07-28T03:15:16;100908.22;;;26.43;73.74
54248;BME280;40161;39.768;2.722;2023-07-28T03:17:41;100885.59;;;26.19;73.06
54248;BME280;40161;39.768;2.722;2023-07-28T03:20:07;100909.00;;;26.44;73.81
54248;BME280;40161;39.768;2.722;2023-07-28T03:22:33;100902.59;;;26.43;73.11
54248;BME280;40161;39.768;2.722;2023-07-28T03:24:59;100900.75;;;26.13;75.30
54248;BME280;40161;39.768;2.722;2023-07-28T03:27:24;100902.00;;;26.30;74.00
54248;BME280;40161;39.768;2.722;2023-07-28T03:29:50;100906.84;;;26.48;73.42
54248;BME280;40161;39.768;2.722;2023-07-28T03:32:16;100917.75;;;26.46;74.21
54248;BME280;40161;39.768;2.722;2023-07-28T03:34:42;100907.75;;;26.45;73.25
54248;BME280;40161;39.768;2.722;2023-07-28T03:37:07;100891.03;;;26.41;73.13
54248;BME280;40161;39.768;2.722;2023-07-28T03:39:33;100889.03;;;26.33;73.70
54248;BME280;40161;39.768;2.722;2023-07-28T03:41:58;100892.13;;;26.25;72.47
54248;BME280;40161;39.768;2.722;2023-07-28T03:44:24;100888.56;;;25.97;73.42
54248;BME280;40161;39.768;2.722;2023-07-28T03:46:49;100894.78;;;25.65;74.82
54248;BME280;40161;39.768;2.722;2023-07-28T03:49:15;100900.13;;;25.90;75.73
54248;BME280;40161;39.768;2.722;2023-07-28T03:51:40;100903.25;;;26.01;74.75
54248;BME280;40161;39.768;2.722;2023-07-28T03:54:06;100913.56;;;26.23;73.98
54248;BME280;40161;39.768;2.722;2023-07-28T03:56:31;100916.38;;;26.14;73.87
54248;BME280;40161;39.768;2.722;2023-07-28T03:58:57;100904.50;;;26.00;74.32
54248;BME280;40161;39.768;2.722;2023-07-28T04:01:22;100923.59;;;26.06;74.08
54248;BME280;40161;39.768;2.722;2023-07-28T04:03:49;100935.28;;;26.13;73.92
54248;BME280;40161;39.768;2.722;2023-07-28T04:06:15;100949.97;;;26.26;73.72
54248;BME280;40161;39.768;2.722;2023-07-28T04:08:40;100935.28;;;26.13;73.09
54248;BME280;40161;39.768;2.722;2023-07-28T04:11:07;100901.84;;;25.78;73.17
54248;BME280;40161;39.768;2.722;2023-07-28T04:13:36;100911.09;;;25.88;73.35
54248;BME280;40161;39.768;2.722;2023-07-28T04:16:03;100874.94;;;25.59;72.70
54248;BME280;40161;39.768;2.722;2023-07-28T04:18:28;100884.97;;;25.78;73.04
54248;BME280;40161;39.768;2.722;2023-07-28T04:20:54;100914.50;;;26.01;71.38
54248;BME280;40161;39.768;2.722;2023-07-28T04:23:19;100915.44;;;26.08;72.45
54248;BME280;40161;39.768;2.722;2023-07-28T04:25:45;100936.38;;;26.16;71.91
54248;BME280;40161;39.768;2.722;2023-07-28T04:28:10;100917.16;;;25.96;70.87
54248;BME280;40161;39.768;2.722;2023-07-28T04:30:36;100936.84;;;26.14;71.86
54248;BME280;40161;39.768;2.722;2023-07-28T04:33:01;100873.72;;;25.69;71.09
54248;BME280;40161;39.768;2.722;2023-07-28T04:35:30;100936.06;;;26.14;70.20
54248;BME280;40161;39.768;2.722;2023-07-28T04:37:55;100885.28;;;25.80;70.40
54248;BME280;40161;39.768;2.722;2023-07-28T04:40:21;100911.06;;;26.07;69.28
54248;BME280;40161;39.768;2.722;2023-07-28T04:42:46;100897.97;;;25.85;69.40
54248;BME280;40161;39.768;2.722;2023-07-28T04:45:12;100924.47;;;25.75;70.31
54248;BME280;40161;39.768;2.722;2023-07-28T04:47:37;100930.09;;;25.75;70.66
54248;BME280;40161;39.768;2.722;2023-07-28T04:50:03;100937.03;;;25.43;69.05
54248;BME280;40161;39.768;2.722;2023-07-28T04:52:29;100933.59;;;25.39;72.19
54248;BME280;40161;39.768;2.722;2023-07-28T04:54:54;100933.66;;;25.66;70.79
54248;BME280;40161;39.768;2.722;2023-07-28T04:57:20;100942.31;;;25.81;70.05
54248;BME280;40161;39.768;2.722;2023-07-28T04:59:45;100955.13;;;25.91;69.89
54248;BME280;40161;39.768;2.722;2023-07-28T05:02:11;100954.16;;;25.94;69.67
54248;BME280;40161;39.768;2.722;2023-07-28T05:04:36;100929.31;;;25.74;68.18
54248;BME280;40161;39.768;2.722;2023-07-28T05:07:03;100921.28;;;25.45;70.13
54248;BME280;40161;39.768;2.722;2023-07-28T05:09:29;100933.69;;;25.75;70.23
54248;BME280;40161;39.768;2.722;2023-07-28T05:11:55;100934.34;;;25.79;69.05
54248;BME280;40161;39.768;2.722;2023-07-28T05:14:20;100918.94;;;25.53;70.22
54248;BME280;40161;39.768;2.722;2023-07-28T05:16:46;100948.09;;;25.96;69.61
54248;BME280;40161;39.768;2.722;2023-07-28T05:19:14;100949.03;;;26.02;68.68
54248;BME280;40161;39.768;2.722;2023-07-28T05:21:40;100951.03;;;26.01;68.17
54248;BME280;40161;39.768;2.722;2023-07-28T05:24:05;100961.81;;;25.94;68.26
54248;BME280;40161;39.768;2.722;2023-07-28T05:26:31;100952.16;;;25.86;68.73
54248;BME280;40161;39.768;2.722;2023-07-28T05:28:56;100950.88;;;25.77;68.43
54248;BME280;40161;39.768;2.722;2023-07-28T05:31:22;100968.84;;;25.89;67.63
54248;BME280;40161;39.768;2.722;2023-07-28T05:33:48;100974.31;;;25.93;67.70
54248;BME280;40161;39.768;2.722;2023-07-28T05:36:13;100972.50;;;25.58;67.06
54248;BME280;40161;39.768;2.722;2023-07-28T05:38:39;100955.25;;;25.29;70.18
54248;BME280;40161;39.768;2.722;2023-07-28T05:41:04;100975.50;;;25.64;68.97
54248;BME280;40161;39.768;2.722;2023-07-28T05:43:30;100980.88;;;25.90;67.43
54248;BME280;40161;39.768;2.722;2023-07-28T05:45:57;100994.78;;;25.93;67.15
54248;BME280;40161;39.768;2.722;2023-07-28T05:48:22;100987.28;;;25.81;67.31
54248;BME280;40161;39.768;2.722;2023-07-28T05:50:48;100988.13;;;25.60;65.75
54248;BME280;40161;39.768;2.722;2023-07-28T05:53:14;100999.81;;;24.65;69.12
54248;BME280;40161;39.768;2.722;2023-07-28T05:55:40;100980.44;;;23.62;72.91
54248;BME280;40161;39.768;2.722;2023-07-28T05:58:06;100933.97;;;23.39;72.99
54248;BME280;40161;39.768;2.722;2023-07-28T06:00:31;100944.63;;;24.05;73.87
54248;BME280;40161;39.768;2.722;2023-07-28T06:02:58;100978.59;;;24.85;71.16
54248;BME280;40161;39.768;2.722;2023-07-28T06:05:24;100986.44;;;25.00;70.09
54248;BME280;40161;39.768;2.722;2023-07-28T06:07:50;101032.03;;;25.35;68.70
54248;BME280;40161;39.768;2.722;2023-07-28T06:10:15;101027.97;;;25.27;66.84
54248;BME280;40161;39.768;2.722;2023-07-28T06:12:41;101020.50;;;24.58;69.95
54248;BME280;40161;39.768;2.722;2023-07-28T06:15:06;101017.34;;;24.56;71.11
54248;BME280;40161;39.768;2.722;2023-07-28T06:17:32;101024.91;;;24.90;70.49
54248;BME280;40161;39.768;2.722;2023-07-28T06:19:58;101027.00;;;25.21;69.78
54248;BME280;40161;39.768;2.722;2023-07-28T06:22:24;101051.47;;;25.51;69.03
54248;BME280;40161;39.768;2.722;2023-07-28T06:24:50;101039.28;;;25.45;67.55
54248;BME280;40161;39.768;2.722;2023-07-28T06:27:15;101038.00;;;25.46;68.16
54248;BME280;40161;39.768;2.722;2023-07-28T06:29:41;101052.59;;;25.54;69.62
54248;BME280;40161;39.768;2.722;2023-07-28T06:32:07;101064.41;;;25.80;68.33
54248;BME280;40161;39.768;2.722;2023-07-28T06:34:32;101049.84;;;25.72;68.42
54248;BME280;40161;39.768;2.722;2023-07-28T06:36:58;101044.06;;;25.76;67.64
54248;BME280;40161;39.768;2.722;2023-07-28T06:39:23;101047.66;;;25.67;67.71
54248;BME280;40161;39.768;2.722;2023-07-28T06:41:52;101049.06;;;25.72;68.61
54248;BME280;40161;39.768;2.722;2023-07-28T06:44:17;101063.03;;;25.94;68.99
54248;BME280;40161;39.768;2.722;2023-07-28T06:46:43;101066.03;;;25.99;68.70
54248;BME280;40161;39.768;2.722;2023-07-28T06:49:08;101048.97;;;25.85;66.51
54248;BME280;40161;39.768;2.722;2023-07-28T06:51:34;101063.81;;;25.94;64.91
54248;BME280;40161;39.768;2.722;2023-07-28T06:54:00;101063.50;;;25.92;66.89
54248;BME280;40161;39.768;2.722;2023-07-28T06:56:25;101056.03;;;25.98;67.75
54248;BME280;40161;39.768;2.722;2023-07-28T06:58:51;101056.97;;;26.04;66.73
54248;BME280;40161;39.768;2.722;2023-07-28T07:01:16;101054.78;;;25.99;63.52
54248;BME280;40161;39.768;2.722;2023-07-28T07:03:43;101047.97;;;25.78;64.11
54248;BME280;40161;39.768;2.722;2023-07-28T07:06:09;101071.81;;;25.96;63.80
54248;BME280;40161;39.768;2.722;2023-07-28T07:08:34;101077.34;;;26.45;63.08
54248;BME280;40161;39.768;2.722;2023-07-28T07:11:00;101052.19;;;26.33;64.00
54248;BME280;40161;39.768;2.722;2023-07-28T07:13:25;101040.91;;;26.23;64.71
54248;BME280;40161;39.768;2.722;2023-07-28T07:15:51;101068.91;;;26.36;65.60
54248;BME280;40161;39.768;2.722;2023-07-28T07:18:17;101063.28;;;26.36;66.69
54248;BME280;40161;39.768;2.722;2023-07-28T07:20:43;101058.72;;;26.39;67.08
54248;BME280;40161;39.768;2.722;2023-07-28T07:23:08;101078.16;;;26.64;67.02
54248;BME280;40161;39.768;2.722;2023-07-28T07:25:34;101065.81;;;26.52;67.44
54248;BME280;40161;39.768;2.722;2023-07-28T07:27:59;101074.41;;;26.58;67.80
54248;BME280;40161;39.768;2.722;2023-07-28T07:30:25;101085.84;;;26.64;67.83
54248;BME280;40161;39.768;2.722;2023-07-28T07:32:50;101042.78;;;26.45;68.43
54248;BME280;40161;39.768;2.722;2023-07-28T07:35:16;101060.50;;;26.55;68.70
54248;BME280;40161;39.768;2.722;2023-07-28T07:37:42;101061.56;;;26.66;68.08
54248;BME280;40161;39.768;2.722;2023-07-28T07:40:07;101059.69;;;26.63;68.47
54248;BME280;40161;39.768;2.722;2023-07-28T07:42:45;101092.88;;;26.78;68.82
54248;BME280;40161;39.768;2.722;2023-07-28T07:45:12;101072.69;;;26.70;69.65
54248;BME280;40161;39.768;2.722;2023-07-28T07:47:38;101095.53;;;26.81;68.52
54248;BME280;40161;39.768;2.722;2023-07-28T07:50:06;101011.06;;;26.35;68.23
54248;BME280;40161;39.768;2.722;2023-07-28T07:52:32;101036.72;;;26.74;69.05
54248;BME280;40161;39.768;2.722;2023-07-28T07:54:57;101086.88;;;27.03;70.05
54248;BME280;40161;39.768;2.722;2023-07-28T07:57:23;101108.16;;;27.23;71.11
54248;BME280;40161;39.768;2.722;2023-07-28T07:59:49;101089.06;;;27.08;70.50
54248;BME280;40161;39.768;2.722;2023-07-28T08:02:14;101083.75;;;27.10;70.86
54248;BME280;40161;39.768;2.722;2023-07-28T08:04:40;101084.19;;;27.27;70.62
54248;BME280;40161;39.768;2.722;2023-07-28T08:07:05;101084.69;;;27.26;69.12
54248;BME280;40161;39.768;2.722;2023-07-28T08:09:31;101090.59;;;27.37;68.39
54248;BME280;40161;39.768;2.722;2023-07-28T08:11:56;101099.16;;;27.42;68.48
54248;BME280;40161;39.768;2.722;2023-07-28T08:14:22;101105.38;;;27.56;67.95
54248;BME280;40161;39.768;2.722;2023-07-28T08:16:47;101108.53;;;27.58;67.85
54248;BME280;40161;39.768;2.722;2023-07-28T08:19:13;101108.97;;;27.65;69.53
54248;BME280;40161;39.768;2.722;2023-07-28T08:21:38;101117.25;;;27.69;70.34
54248;BME280;40161;39.768;2.722;2023-07-28T08:24:04;101133.50;;;27.83;71.38
54248;BME280;40161;39.768;2.722;2023-07-28T08:26:30;101119.41;;;27.83;70.10
54248;BME280;40161;39.768;2.722;2023-07-28T08:28:55;101112.81;;;27.86;70.68
54248;BME280;40161;39.768;2.722;2023-07-28T08:31:21;101105.19;;;27.78;71.08
54248;BME280;40161;39.768;2.722;2023-07-28T08:33:46;101118.88;;;27.94;70.75
54248;BME280;40161;39.768;2.722;2023-07-28T08:36:12;101098.81;;;28.01;70.62
54248;BME280;40161;39.768;2.722;2023-07-28T08:38:38;101102.22;;;28.05;70.55
54248;BME280;40161;39.768;2.722;2023-07-28T08:41:04;101125.09;;;28.07;70.31
54248;BME280;40161;39.768;2.722;2023-07-28T08:43:31;101117.25;;;28.11;71.09
54248;BME280;40161;39.768;2.722;2023-07-28T08:45:57;101105.50;;;28.04;69.86
54248;BME280;40161;39.768;2.722;2023-07-28T08:48:26;101114.19;;;28.24;68.75
54248;BME280;40161;39.768;2.722;2023-07-28T08:50:52;101103.44;;;28.13;69.74
54248;BME280;40161;39.768;2.722;2023-07-28T08:53:18;101113.59;;;28.44;70.34
54248;BME280;40161;39.768;2.722;2023-07-28T08:55:43;101102.84;;;28.33;68.95
54248;BME280;40161;39.768;2.722;2023-07-28T08:58:17;101119.00;;;28.33;68.92
54248;BME280;40161;39.768;2.722;2023-07-28T09:00:44;101104.88;;;28.33;69.77
54248;BME280;40161;39.768;2.722;2023-07-28T09:03:10;101117.88;;;28.39;71.16
54248;BME280;40161;39.768;2.722;2023-07-28T09:05:36;101098.16;;;28.30;69.89
54248;BME280;40161;39.768;2.722;2023-07-28T09:08:02;101107.53;;;28.36;70.84
54248;BME280;40161;39.768;2.722;2023-07-28T09:10:44;101111.00;;;28.31;71.09
54248;BME280;40161;39.768;2.722;2023-07-28T09:13:11;101094.97;;;28.37;71.70
54248;BME280;40161;39.768;2.722;2023-07-28T09:15:37;101112.81;;;28.44;71.36
54248;BME280;40161;39.768;2.722;2023-07-28T09:18:03;101126.88;;;28.53;73.45
54248;BME280;40161;39.768;2.722;2023-07-28T09:20:36;101124.59;;;28.42;72.94
54248;BME280;40161;39.768;2.722;2023-07-28T09:23:03;101111.13;;;28.37;72.80
54248;BME280;40161;39.768;2.722;2023-07-28T09:25:29;101109.84;;;28.38;72.06
54248;BME280;40161;39.768;2.722;2023-07-28T09:27:55;101123.69;;;28.60;72.42
54248;BME280;40161;39.768;2.722;2023-07-28T09:30:21;101129.56;;;28.71;73.79
54248;BME280;40161;39.768;2.722;2023-07-28T09:32:49;101122.28;;;28.55;71.69
54248;BME280;40161;39.768;2.722;2023-07-28T09:35:16;101126.50;;;28.60;72.15
54248;BME280;40161;39.768;2.722;2023-07-28T09:37:43;101125.06;;;28.65;71.58
54248;BME280;40161;39.768;2.722;2023-07-28T09:40:15;101129.19;;;28.78;72.00
54248;BME280;40161;39.768;2.722;2023-07-28T09:42:43;101125.47;;;28.72;70.51
54248;BME280;40161;39.768;2.722;2023-07-28T09:45:10;101132.31;;;28.80;70.76
54248;BME280;40161;39.768;2.722;2023-07-28T09:47:37;101110.69;;;28.77;70.97
54248;BME280;40161;39.768;2.722;2023-07-28T09:50:08;101129.69;;;28.92;70.57
54248;BME280;40161;39.768;2.722;2023-07-28T09:52:38;101119.75;;;28.96;70.12
54248;BME280;40161;39.768;2.722;2023-07-28T09:55:07;101121.00;;;29.04;70.97
54248;BME280;40161;39.768;2.722;2023-07-28T09:57:59;101123.97;;;29.01;70.36
54248;BME280;40161;39.768;2.722;2023-07-28T10:00:25;101133.06;;;29.05;71.20
54248;BME280;40161;39.768;2.722;2023-07-28T10:02:52;101127.31;;;29.14;70.93
54248;BME280;40161;39.768;2.722;2023-07-28T10:05:18;101128.28;;;29.11;71.12
54248;BME280;40161;39.768;2.722;2023-07-28T10:07:45;101126.63;;;29.19;70.41
54248;BME280;40161;39.768;2.722;2023-07-28T10:10:12;101126.72;;;29.10;70.03
54248;BME280;40161;39.768;2.722;2023-07-28T10:12:43;101099.34;;;29.01;69.81
54248;BME280;40161;39.768;2.722;2023-07-28T10:15:18;101116.22;;;29.25;69.55
54248;BME280;40161;39.768;2.722;2023-07-28T10:17:50;101126.72;;;29.25;68.51
54248;BME280;40161;39.768;2.722;2023-07-28T10:20:38;101110.75;;;29.22;69.12
54248;BME280;40161;39.768;2.722;2023-07-28T10:23:15;101117.38;;;29.19;69.59
54248;BME280;40161;39.768;2.722;2023-07-28T10:25:43;101106.16;;;29.24;69.53
54248;BME280;40161;39.768;2.722;2023-07-28T10:30:55;101100.03;;;29.41;69.97
54248;BME280;40161;39.768;2.722;2023-07-28T10:33:37;101113.19;;;29.44;68.71
54248;BME280;40161;39.768;2.722;2023-07-28T10:39:00;101112.41;;;29.43;68.20
54248;BME280;40161;39.768;2.722;2023-07-28T10:41:26;101095.34;;;29.38;68.56
54248;BME280;40161;39.768;2.722;2023-07-28T10:43:51;101089.50;;;29.26;67.95
54248;BME280;40161;39.768;2.722;2023-07-28T10:46:18;101108.97;;;29.54;68.92
54248;BME280;40161;39.768;2.722;2023-07-28T10:48:47;101106.47;;;29.56;68.27
54248;BME280;40161;39.768;2.722;2023-07-28T10:51:21;101118.03;;;29.73;68.00
54248;BME280;40161;39.768;2.722;2023-07-28T10:53:52;101115.09;;;29.82;67.04
54248;BME280;40161;39.768;2.722;2023-07-28T10:56:20;101099.63;;;29.77;66.78
54248;BME280;40161;39.768;2.722;2023-07-28T10:58:47;101080.69;;;29.69;67.14
54248;BME280;40161;39.768;2.722;2023-07-28T11:01:14;101104.16;;;29.90;66.74
54248;BME280;40161;39.768;2.722;2023-07-28T11:03:40;101106.56;;;29.97;66.42
54248;BME280;40161;39.768;2.722;2023-07-28T11:06:06;101110.81;;;30.07;66.67
54248;BME280;40161;39.768;2.722;2023-07-28T11:08:32;101098.03;;;30.12;66.19
54248;BME280;40161;39.768;2.722;2023-07-28T11:11:13;101094.44;;;30.11;65.82
54248;BME280;40161;39.768;2.722;2023-07-28T11:13:40;101089.44;;;30.21;66.50
54248;BME280;40161;39.768;2.722;2023-07-28T11:16:05;101073.13;;;30.16;66.54
54248;BME280;40161;39.768;2.722;2023-07-28T11:18:31;101090.84;;;30.31;66.01
54248;BME280;40161;39.768;2.722;2023-07-28T11:20:57;101081.78;;;30.27;65.82
54248;BME280;40161;39.768;2.722;2023-07-28T11:23:22;101053.53;;;30.12;65.33
54248;BME280;40161;39.768;2.722;2023-07-28T11:25:49;101077.97;;;30.30;65.72
54248;BME280;40161;39.768;2.722;2023-07-28T11:28:15;101066.53;;;30.39;65.31
54248;BME280;40161;39.768;2.722;2023-07-28T11:30:41;101053.13;;;30.40;64.75
54248;BME280;40161;39.768;2.722;2023-07-28T11:33:09;101074.16;;;30.54;64.25
54248;BME280;40161;39.768;2.722;2023-07-28T11:35:38;101070.53;;;30.53;64.38
54248;BME280;40161;39.768;2.722;2023-07-28T11:38:05;101061.50;;;30.49;63.92
54248;BME280;40161;39.768;2.722;2023-07-28T11:40:31;101066.13;;;30.52;64.46
54248;BME280;40161;39.768;2.722;2023-07-28T11:42:58;101058.84;;;30.45;64.45
54248;BME280;40161;39.768;2.722;2023-07-28T11:45:24;101061.59;;;30.60;64.74
54248;BME280;40161;39.768;2.722;2023-07-28T11:48:05;101074.88;;;30.74;64.34
54248;BME280;40161;39.768;2.722;2023-07-28T11:50:39;101055.28;;;30.71;63.42
54248;BME280;40161;39.768;2.722;2023-07-28T11:53:05;101065.91;;;30.76;64.21
54248;BME280;40161;39.768;2.722;2023-07-28T11:55:33;101061.09;;;30.62;63.84
54248;BME280;40161;39.768;2.722;2023-07-28T11:58:00;101048.66;;;30.54;64.42
54248;BME280;40161;39.768;2.722;2023-07-28T12:00:34;101053.38;;;30.62;64.43
54248;BME280;40161;39.768;2.722;2023-07-28T12:03:04;101060.53;;;30.78;64.13
54248;BME280;40161;39.768;2.722;2023-07-28T12:05:30;101059.47;;;30.76;63.88
54248;BME280;40161;39.768;2.722;2023-07-28T12:07:56;101040.13;;;30.74;63.98
54248;BME280;40161;39.768;2.722;2023-07-28T12:10:22;101056.69;;;30.81;63.41
54248;BME280;40161;39.768;2.722;2023-07-28T12:12:49;101045.63;;;30.83;62.97
54248;BME280;40161;39.768;2.722;2023-07-28T12:20:39;101039.03;;;30.92;62.60
54248;BME280;40161;39.768;2.722;2023-07-28T12:23:06;101049.13;;;30.98;62.82
54248;BME280;40161;39.768;2.722;2023-07-28T12:25:33;101038.28;;;30.97;62.66
54248;BME280;40161;39.768;2.722;2023-07-28T12:27:58;101025.97;;;31.00;62.56
54248;BME280;40161;39.768;2.722;2023-07-28T12:30:24;101011.44;;;30.87;62.16
54248;BME280;40161;39.768;2.722;2023-07-28T12:32:50;101032.75;;;31.08;63.35
54248;BME280;40161;39.768;2.722;2023-07-28T12:35:15;101023.69;;;31.04;62.41
54248;BME280;40161;39.768;2.722;2023-07-28T12:37:41;101011.56;;;31.04;62.17
54248;BME280;40161;39.768;2.722;2023-07-28T12:40:07;100996.81;;;30.94;62.30
54248;BME280;40161;39.768;2.722;2023-07-28T12:42:34;101011.31;;;31.02;62.08
54248;BME280;40161;39.768;2.722;2023-07-28T12:44:59;101031.50;;;31.15;61.71
54248;BME280;40161;39.768;2.722;2023-07-28T12:47:25;101004.63;;;31.05;62.04
54248;BME280;40161;39.768;2.722;2023-07-28T12:49:51;101008.31;;;31.16;61.92
54248;BME280;40161;39.768;2.722;2023-07-28T12:52:16;101002.59;;;31.11;62.36
54248;BME280;40161;39.768;2.722;2023-07-28T12:54:42;101005.00;;;31.18;61.11
54248;BME280;40161;39.768;2.722;2023-07-28T12:57:09;101016.06;;;31.16;61.41
54248;BME280;40161;39.768;2.722;2023-07-28T12:59:37;100995.47;;;31.21;61.21
54248;BME280;40161;39.768;2.722;2023-07-28T13:02:03;101015.69;;;31.34;61.39